Time;durP1;ratioP1;P1;durP2;ratioP2;P2;SDS_P1;SDS_P2;PMS_P1;PMS_P2;Temp;Humidity;BMP_temperature;BMP_pressure;BME280_temperature;BME280_humidity;BME280_pressure;Samples;Min_cycle;Max_cycle;Signal;HPM_P1;HPM_P2
2023/05/06 00:02:05;;;;;;;1999.90;999.90;;;;;;;13.00;100.00;93559.50;5007666;28;20195;-65
2023/05/06 00:04:31;;;;;;;1999.90;999.90;;;;;;;13.03;100.00;93555.06;5007206;28;20226;-65
2023/05/06 00:06:56;;;;;;;1999.90;999.90;;;;;;;13.01;100.00;93541.09;5007290;28;20192;-65
2023/05/06 00:09:23;;;;;;;1999.90;999.90;;;;;;;13.00;100.00;93531.34;5007459;28;20195;-66
2023/05/06 00:11:49;;;;;;;1999.90;999.90;;;;;;;13.00;100.00;93523.09;5007080;28;20231;-65
2023/05/06 00:14:14;;;;;;;1999.90;999.90;;;;;;;13.04;100.00;93520.97;5007252;28;20202;-65
2023/05/06 00:16:40;;;;;;;1999.90;999.90;;;;;;;12.98;100.00;93504.41;5007506;28;20202;-66
2023/05/06 00:19:05;;;;;;;1999.90;999.90;;;;;;;12.97;100.00;93502.13;5007140;28;20214;-65
2023/05/06 00:21:31;;;;;;;1999.90;999.90;;;;;;;13.01;100.00;93420.53;5007008;28;20207;-66
2023/05/06 00:23:56;;;;;;;1999.90;999.90;;;;;;;13.05;100.00;93418.38;5007332;28;20199;-65
2023/05/06 00:26:21;;;;;;;1999.90;999.90;;;;;;;12.98;100.00;93405.00;5007225;28;20203;-66
2023/05/06 00:28:47;;;;;;;1999.90;999.90;;;;;;;12.98;100.00;93394.81;5007178;28;20203;-65
2023/05/06 00:31:12;;;;;;;1999.90;999.90;;;;;;;12.97;100.00;93398.00;5006992;28;20218;-65
2023/05/06 00:33:38;;;;;;;1999.90;999.90;;;;;;;12.95;100.00;93401.19;5009163;28;20253;-65
2023/05/06 00:36:03;;;;;;;1999.90;999.90;;;;;;;12.90;100.00;93398.34;5010904;28;20203;-65
2023/05/06 00:38:29;;;;;;;1999.90;999.90;;;;;;;12.88;100.00;93395.31;5010819;28;20221;-65
2023/05/06 00:40:54;;;;;;;1999.90;999.90;;;;;;;12.84;100.00;93390.00;5010365;28;20203;-64
2023/05/06 00:43:20;;;;;;;1999.90;999.90;;;;;;;12.82;100.00;93391.69;5010465;28;20199;-65
2023/05/06 00:45:47;;;;;;;1999.90;999.90;;;;;;;12.78;100.00;93385.63;5010568;28;20221;-65
2023/05/06 00:48:13;;;;;;;1999.90;999.90;;;;;;;12.82;100.00;93386.97;5010290;28;20265;-65
2023/05/06 00:50:39;;;;;;;1999.90;999.90;;;;;;;12.67;100.00;93390.84;5010677;28;20225;-65
2023/05/06 00:53:07;;;;;;;1999.90;999.90;;;;;;;12.64;100.00;93397.28;5010596;28;20195;-65
2023/05/06 00:55:33;;;;;;;1999.90;999.90;;;;;;;12.62;100.00;93391.50;5010376;28;20209;-65
2023/05/06 00:57:59;;;;;;;1999.90;999.90;;;;;;;12.61;100.00;93392.72;5010149;28;20262;-65
2023/05/06 01:00:25;;;;;;;1999.90;999.90;;;;;;;12.58;100.00;93388.19;5010389;28;20191;-65
2023/05/06 01:02:50;;;;;;;1999.90;999.90;;;;;;;12.58;100.00;93399.91;5010024;28;20210;-65
2023/05/06 01:05:19;;;;;;;1999.90;999.90;;;;;;;12.57;100.00;93403.09;5010560;28;20195;-65
2023/05/06 01:08:20;;;;;;;1999.90;999.90;;;;;;;12.53;100.00;93397.03;5010083;28;20226;-65
2023/05/06 01:10:53;;;;;;;1999.90;999.90;;;;;;;12.50;100.00;93409.66;5010030;28;20273;-65
2023/05/06 01:13:19;;;;;;;1999.90;999.90;;;;;;;12.46;100.00;93397.38;5010607;28;20202;-65
2023/05/06 01:15:53;;;;;;;1999.90;999.90;;;;;;;12.41;100.00;93411.69;5010281;28;20209;-65
2023/05/06 01:18:21;;;;;;;1999.90;999.90;;;;;;;12.36;100.00;93409.59;5010379;28;20207;-65
2023/05/06 01:20:49;;;;;;;1999.90;999.90;;;;;;;12.34;100.00;93401.06;5009980;28;20274;-65
2023/05/06 01:23:16;;;;;;;1999.90;999.90;;;;;;;12.32;100.00;93403.50;5009955;28;20260;-65
2023/05/06 01:25:41;;;;;;;1999.90;999.90;;;;;;;12.31;100.00;93407.47;5009839;28;20195;-65
2023/05/06 01:28:11;;;;;;;1999.90;999.90;;;;;;;12.25;100.00;93406.59;5009689;28;20249;-65
2023/05/06 01:30:53;;;;;;;1999.90;999.90;;;;;;;12.23;100.00;93401.56;5009680;28;20207;-66
2023/05/06 01:33:45;;;;;;;1999.90;999.90;;;;;;;12.19;100.00;93405.69;5009520;28;20202;-65
2023/05/06 01:36:19;;;;;;;1999.90;999.90;;;;;;;12.18;100.00;93413.16;5009729;28;20213;-65
2023/05/06 01:38:53;;;;;;;1999.90;999.90;;;;;;;12.13;100.00;93410.28;5009601;28;20201;-65
2023/05/06 01:41:21;;;;;;;1999.90;999.90;;;;;;;12.13;100.00;93407.53;5009618;28;20209;-65
2023/05/06 01:43:48;;;;;;;1999.90;999.90;;;;;;;12.22;100.00;93393.81;5009070;28;20199;-65
2023/05/06 01:46:20;;;;;;;1999.90;999.90;;;;;;;12.18;100.00;93382.28;5009508;28;20214;-65
2023/05/06 01:48:48;;;;;;;1999.90;999.90;;;;;;;12.18;100.00;93393.22;5009352;28;20253;-66
2023/05/06 01:51:13;;;;;;;1999.90;999.90;;;;;;;12.16;100.00;93401.13;5009271;28;20218;-65
2023/05/06 01:53:38;;;;;;;1999.90;999.90;;;;;;;12.12;100.00;93395.06;5009087;28;20187;-65
2023/05/06 01:56:04;;;;;;;1999.90;999.90;;;;;;;12.10;100.00;93386.56;5009662;28;20203;-65
2023/05/06 01:58:30;;;;;;;1999.90;999.90;;;;;;;12.06;100.00;93391.47;5009322;28;20282;-65
2023/05/06 02:00:55;;;;;;;1999.90;999.90;;;;;;;11.99;100.00;93402.72;5008806;28;20212;-65
2023/05/06 02:03:20;;;;;;;1999.90;999.90;;;;;;;11.97;100.00;93407.88;5009233;28;20237;-65
2023/05/06 02:05:46;;;;;;;1999.90;999.90;;;;;;;11.99;100.00;93402.72;5009045;28;20213;-65
2023/05/06 02:08:11;;;;;;;1999.90;999.90;;;;;;;12.01;100.00;93406.50;5009368;28;20225;-65
2023/05/06 02:10:37;;;;;;;1999.90;999.90;;;;;;;12.00;100.00;93398.75;5008978;28;20225;-65
2023/05/06 02:13:03;;;;;;;1999.90;999.90;;;;;;;12.00;100.00;93387.81;5008981;28;20205;-65
2023/05/06 02:15:28;;;;;;;1999.90;999.90;;;;;;;12.03;100.00;93389.63;5008980;28;20206;-65
2023/05/06 02:17:53;;;;;;;1999.90;999.90;;;;;;;12.06;100.00;93388.72;5008713;28;20206;-66
2023/05/06 02:20:19;;;;;;;1999.90;999.90;;;;;;;12.02;100.00;93396.34;5009334;28;20218;-65
2023/05/06 02:22:44;;;;;;;1999.90;999.90;;;;;;;11.99;100.00;93397.25;5008754;28;20199;-65
2023/05/06 02:25:10;;;;;;;1999.90;999.90;;;;;;;11.94;100.00;93397.84;5008540;28;20186;-65
2023/05/06 02:27:35;;;;;;;1999.90;999.90;;;;;;;11.87;100.00;93407.16;5008555;28;20237;-65
2023/05/06 02:30:01;;;;;;;1999.90;999.90;;;;;;;11.83;100.00;93401.09;5008639;28;20210;-64
2023/05/06 02:32:26;;;;;;;1999.90;999.90;;;;;;;11.82;100.00;93404.28;5008703;28;20511;-65
2023/05/06 02:34:52;;;;;;;1999.90;999.90;;;;;;;11.80;100.00;93409.47;5008782;28;20215;-65
2023/05/06 02:37:17;;;;;;;1999.90;999.90;;;;;;;11.77;100.00;93407.66;5008904;28;20213;-64
2023/05/06 02:39:43;;;;;;;1999.90;999.90;;;;;;;11.75;100.00;93407.34;5008203;28;20223;-65
2023/05/06 02:42:09;;;;;;;1999.90;999.90;;;;;;;11.72;100.00;93406.28;5008316;28;20230;-64
2023/05/06 02:44:34;;;;;;;1999.90;999.90;;;;;;;11.70;100.00;93403.25;5008112;28;20214;-65
2023/05/06 02:47:00;;;;;;;1999.90;999.90;;;;;;;11.71;100.00;93412.19;5008701;28;20199;-64
2023/05/06 02:49:25;;;;;;;1999.90;999.90;;;;;;;11.70;100.00;93407.97;5008359;28;20206;-64
2023/05/06 02:51:50;;;;;;;1999.90;999.90;;;;;;;11.70;100.00;93399.75;5008103;28;20297;-65
2023/05/06 02:54:16;;;;;;;1999.90;999.90;;;;;;;11.70;100.00;93397.03;5007980;28;20203;-67
2023/05/06 02:56:42;;;;;;;1999.90;999.90;;;;;;;11.68;100.00;93388.50;5007694;28;20254;-65
2023/05/06 02:59:07;;;;;;;1999.90;999.90;;;;;;;11.66;100.00;93383.50;5008493;28;20199;-64
2023/05/06 03:01:32;;;;;;;1999.90;999.90;;;;;;;11.68;100.00;93388.50;5008404;28;20210;-65
2023/05/06 03:03:58;;;;;;;1999.90;999.90;;;;;;;11.69;100.00;93390.78;5008126;28;20229;-65
2023/05/06 03:06:23;;;;;;;1999.90;999.90;;;;;;;11.69;100.00;93373.63;5007865;28;20202;-64
2023/05/06 03:08:48;;;;;;;1999.90;999.90;;;;;;;11.70;100.00;93375.16;5007839;28;20264;-64
2023/05/06 03:11:14;;;;;;;1999.90;999.90;;;;;;;11.70;100.00;93380.63;5007886;28;20221;-65
2023/05/06 03:13:39;;;;;;;1999.90;999.90;;;;;;;11.70;100.00;93375.16;5008434;28;20205;-65
2023/05/06 03:16:10;;;;;;;1999.90;999.90;;;;;;;11.72;100.00;93378.16;5007658;28;20199;-64
2023/05/06 03:18:36;;;;;;;1999.90;999.90;;;;;;;11.75;100.00;93372.56;5008159;28;20198;-66
2023/05/06 03:21:01;;;;;;;1999.90;999.90;;;;;;;11.76;100.00;93365.13;5008210;28;20193;-64
2023/05/06 03:23:26;;;;;;;1999.90;999.90;;;;;;;11.78;100.00;93352.50;5007742;28;20209;-68
2023/05/06 03:25:52;;;;;;;1999.90;999.90;;;;;;;11.82;100.00;93349.59;5007598;28;20209;-65
2023/05/06 03:28:17;;;;;;;1999.90;999.90;;;;;;;11.82;100.00;93344.13;5008391;28;20209;-64
2023/05/06 03:30:42;;;;;;;1999.90;999.90;;;;;;;11.79;100.00;93347.75;5007655;28;20216;-64
2023/05/06 03:33:08;;;;;;;1999.90;999.90;;;;;;;11.75;100.00;93339.75;5008046;28;20239;-64
2023/05/06 03:35:33;;;;;;;1999.90;999.90;;;;;;;11.74;100.00;93353.88;5007308;28;20197;-65
2023/05/06 03:37:58;;;;;;;1999.90;999.90;;;;;;;11.72;100.00;93356.28;5007949;28;20202;-64
2023/05/06 03:40:24;;;;;;;1999.90;999.90;;;;;;;11.66;100.00;93363.63;5007292;28;20282;-65
2023/05/06 03:42:49;;;;;;;1999.90;999.90;;;;;;;11.58;100.00;93376.06;5007584;28;20198;-65
2023/05/06 03:45:14;;;;;;;1999.90;999.90;;;;;;;11.59;100.00;93399.44;5007626;28;20203;-64
2023/05/06 03:47:40;;;;;;;1999.90;999.90;;;;;;;11.58;100.00;93390.47;5007508;28;20269;-64
2023/05/06 03:50:05;;;;;;;1999.90;999.90;;;;;;;11.53;100.00;93398.53;5007444;28;20207;-64
2023/05/06 03:52:31;;;;;;;1999.90;999.90;;;;;;;11.52;100.00;93394.28;5007334;28;20221;-64
2023/05/06 03:54:56;;;;;;;1999.90;999.90;;;;;;;11.52;100.00;93391.56;5007638;28;20191;-64
2023/05/06 03:57:21;;;;;;;1999.90;999.90;;;;;;;11.50;100.00;93383.03;5007213;28;20206;-65
2023/05/06 03:59:47;;;;;;;1999.90;999.90;;;;;;;11.51;100.00;93395.50;5007620;28;20229;-64
2023/05/06 04:02:13;;;;;;;1999.90;999.90;;;;;;;11.52;100.00;93388.81;5007777;28;20204;-64
2023/05/06 04:04:38;;;;;;;1999.90;999.90;;;;;;;11.50;100.00;93393.97;5007207;28;20233;-65
2023/05/06 04:07:04;;;;;;;1999.90;999.90;;;;;;;11.45;100.00;93391.84;5008452;28;20199;-64
2023/05/06 04:09:31;;;;;;;1999.90;999.90;;;;;;;11.47;100.00;93384.72;5011217;28;20207;-64
2023/05/06 04:11:56;;;;;;;1999.90;999.90;;;;;;;11.54;100.00;93394.59;5011002;28;20243;-64
2023/05/06 04:14:22;;;;;;;1999.90;999.90;;;;;;;11.62;100.00;93387.63;5011550;28;20203;-64
2023/05/06 04:16:47;;;;;;;1999.90;999.90;;;;;;;11.67;100.00;93395.97;5011266;28;20226;-64
2023/05/06 04:19:15;;;;;;;1999.90;999.90;;;;;;;11.73;100.00;93396.09;5011751;28;20199;-65
2023/05/06 04:21:40;;;;;;;1999.90;999.90;;;;;;;11.85;100.00;93441.66;5011394;28;20195;-65
2023/05/06 04:24:05;;;;;;;1999.90;999.90;;;;;;;11.97;100.00;93446.19;5011116;28;20206;-65
2023/05/06 04:26:31;;;;;;;1999.90;999.90;;;;;;;12.11;100.00;93442.81;5010628;28;20233;-65
2023/05/06 04:28:57;;;;;;;1999.90;999.90;;;;;;;12.27;100.00;93445.19;5011338;28;20190;-65
2023/05/06 04:31:23;;;;;;;1999.90;999.90;;;;;;;12.39;100.00;93452.47;5011108;28;20222;-65
2023/05/06 04:33:48;;;;;;;1999.90;999.90;;;;;;;12.42;100.00;93451.53;5011149;28;20213;-65
2023/05/06 04:36:14;;;;;;;1999.90;999.90;;;;;;;12.45;100.00;93456.06;5010934;28;20211;-65
2023/05/06 04:38:39;;;;;;;1999.90;999.90;;;;;;;12.53;100.00;93446.31;5010772;28;20314;-65
2023/05/06 04:41:05;;;;;;;1999.90;999.90;;;;;;;12.55;100.00;93454.81;5010909;28;20210;-65
2023/05/06 04:43:30;;;;;;;1999.90;999.90;;;;;;;12.61;100.00;93461.19;5010850;28;20203;-65
2023/05/06 04:45:56;;;;;;;1999.90;999.90;;;;;;;12.76;100.00;93464.78;5010491;28;20213;-64
2023/05/06 04:48:21;;;;;;;1999.90;999.90;;;;;;;12.96;100.00;93462.22;5010606;28;20195;-63
2023/05/06 04:50:48;;;;;;;1999.90;999.90;;;;;;;13.32;100.00;93456.53;5010443;28;20249;-64
2023/05/06 04:53:14;;;;;;;1999.90;999.90;;;;;;;13.59;100.00;93453.59;5010933;28;20198;-64
2023/05/06 04:55:39;;;;;;;1999.90;999.90;;;;;;;13.63;100.00;93472.63;5010200;28;20199;-65
2023/05/06 04:58:05;;;;;;;1999.90;999.90;;;;;;;13.61;100.00;93478.56;5010135;28;20218;-66
2023/05/06 05:00:30;;;;;;;1999.90;999.90;;;;;;;13.65;100.00;93495.59;5010721;28;20171;-64
2023/05/06 05:02:55;;;;;;;1999.90;999.90;;;;;;;13.61;100.00;93516.97;5010375;28;20206;-65
2023/05/06 05:05:24;;;;;;;1999.90;999.90;;;;;;;13.52;100.00;93533.50;5010549;28;20195;-65
2023/05/06 05:07:49;;;;;;;1999.90;999.90;;;;;;;13.49;100.00;93559.09;5010442;28;20218;-65
2023/05/06 05:10:14;;;;;;;1999.90;999.90;;;;;;;13.43;100.00;93582.91;5010457;28;20211;-65
2023/05/06 05:12:40;;;;;;;1999.90;999.90;;;;;;;13.40;100.00;93600.28;5009958;28;20198;-66
2023/05/06 05:15:06;;;;;;;1999.90;999.90;;;;;;;13.34;100.00;93619.34;5009727;28;20191;-66
2023/05/06 05:17:31;;;;;;;1999.90;999.90;;;;;;;13.37;100.00;93628.66;5010312;28;20198;-66
2023/05/06 05:19:56;;;;;;;1999.90;999.90;;;;;;;13.37;100.00;93639.63;5008991;28;20187;-65
2023/05/06 05:22:22;;;;;;;1999.90;999.90;;;;;;;13.33;100.00;93649.97;5010043;28;20201;-66
2023/05/06 05:24:47;;;;;;;1999.90;999.90;;;;;;;13.32;100.00;93671.16;5009928;28;20207;-66
2023/05/06 05:27:12;;;;;;;1999.90;999.90;;;;;;;13.41;100.00;93662.13;5010040;28;20199;-65
2023/05/06 05:29:38;;;;;;;1999.90;999.90;;;;;;;13.42;100.00;93660.91;5009519;28;20203;-66
2023/05/06 05:32:03;;;;;;;1999.90;999.90;;;;;;;13.50;100.00;93659.34;5009635;28;21654;-65
2023/05/06 05:34:29;;;;;;;1999.90;999.90;;;;;;;13.43;100.00;93670.66;5010014;28;20206;-65
2023/05/06 05:36:55;;;;;;;1999.90;999.90;;;;;;;13.43;100.00;93672.66;5009886;28;20267;-66
2023/05/06 05:39:20;;;;;;;1999.90;999.90;;;;;;;13.40;100.00;93688.00;5010014;28;20225;-65
2023/05/06 05:41:46;;;;;;;1999.90;999.90;;;;;;;13.45;100.00;93687.41;5009534;28;20199;-65
2023/05/06 05:44:11;;;;;;;1999.90;999.90;;;;;;;13.50;100.00;93695.00;5009438;28;20270;-66
2023/05/06 05:46:36;;;;;;;1999.90;999.90;;;;;;;13.55;100.00;93694.34;5009509;28;20238;-66
2023/05/06 05:49:02;;;;;;;1999.90;999.90;;;;;;;13.63;100.00;93690.06;5009313;28;20226;-65
2023/05/06 05:51:27;;;;;;;1999.90;999.90;;;;;;;13.66;100.00;93694.59;5009404;28;20245;-65
2023/05/06 05:53:53;;;;;;;1999.90;999.90;;;;;;;13.73;100.00;93688.03;5009188;28;20229;-66
2023/05/06 05:56:18;;;;;;;1999.90;999.90;;;;;;;13.79;100.00;93683.44;5009377;28;20419;-66
2023/05/06 05:58:43;;;;;;;1999.90;999.90;;;;;;;13.87;100.00;93679.88;5009038;28;20210;-66
2023/05/06 06:01:09;;;;;;;1999.90;999.90;;;;;;;13.90;100.00;93681.69;5009067;28;20231;-65
2023/05/06 06:03:34;;;;;;;1999.90;999.90;;;;;;;13.97;100.00;93667.63;5009251;28;20214;-66
2023/05/06 06:06:00;;;;;;;1999.90;999.90;;;;;;;14.01;100.00;93665.47;5009547;28;20199;-65
2023/05/06 06:08:25;;;;;;;1999.90;999.90;;;;;;;14.11;100.00;93669.69;5009369;28;20199;-65
2023/05/06 06:10:50;;;;;;;1999.90;999.90;;;;;;;14.15;100.00;93680.47;5009099;28;20221;-65
2023/05/06 06:13:16;;;;;;;1999.90;999.90;;;;;;;14.17;100.00;93684.25;5009062;28;20195;-65
2023/05/06 06:15:41;;;;;;;1999.90;999.90;;;;;;;14.25;100.00;93690.97;5009045;28;20234;-70
2023/05/06 06:18:07;;;;;;;1999.90;999.90;;;;;;;14.30;100.00;93698.56;5008862;28;20199;-65
2023/05/06 06:20:34;;;;;;;1999.90;999.90;;;;;;;14.30;100.00;93709.53;5008683;28;20207;-65
2023/05/06 06:22:59;;;;;;;1999.90;999.90;;;;;;;14.31;100.00;93722.03;5008707;28;20203;-65
2023/05/06 06:25:24;;;;;;;1999.90;999.90;;;;;;;14.37;100.00;93727.66;5008839;28;20205;-65
2023/05/06 06:27:50;;;;;;;1999.90;999.90;;;;;;;14.44;100.00;93728.06;5008770;28;20241;-65
2023/05/06 06:30:15;;;;;;;1999.90;999.90;;;;;;;14.36;100.00;93754.38;5007926;28;20219;-66
2023/05/06 06:32:49;;;;;;;1999.90;999.90;;;;;;;14.34;100.00;93781.53;5008466;28;20183;-65
2023/05/06 06:35:15;;;;;;;1999.90;999.90;;;;;;;14.35;100.00;93777.53;5008954;28;20203;-66
2023/05/06 06:37:40;;;;;;;1999.90;999.90;;;;;;;14.28;100.00;93788.13;5008703;28;20203;-66
2023/05/06 06:40:06;;;;;;;1999.90;999.90;;;;;;;14.31;100.00;93804.41;5008490;28;20199;-66
2023/05/06 06:42:31;;;;;;;1999.90;999.90;;;;;;;14.33;100.00;93809.44;5008067;28;20209;-66
2023/05/06 06:44:57;;;;;;;1999.90;999.90;;;;;;;14.40;100.00;93798.91;5008202;28;20270;-66
2023/05/06 06:47:22;;;;;;;1999.90;999.90;;;;;;;14.47;100.00;93812.28;5008191;28;20199;-65
2023/05/06 06:49:47;;;;;;;1999.90;999.90;;;;;;;14.48;100.00;93821.28;5008093;28;20201;-65
2023/05/06 06:52:13;;;;;;;1999.90;999.90;;;;;;;14.46;100.00;93832.72;5007961;28;20215;-66
2023/05/06 06:54:38;;;;;;;1999.90;999.90;;;;;;;14.51;100.00;93831.34;5008140;28;20233;-67
2023/05/06 06:57:05;;;;;;;1999.90;999.90;;;;;;;14.57;100.00;93848.72;5008699;28;20198;-67
2023/05/06 06:59:30;;;;;;;1999.90;999.90;;;;;;;14.60;100.00;93843.03;5008255;28;20202;-65
2023/05/06 07:01:56;;;;;;;1999.90;999.90;;;;;;;14.71;100.00;93848.78;5008359;28;20183;-64
2023/05/06 07:04:21;;;;;;;1999.90;999.90;;;;;;;14.76;100.00;93861.88;5007764;28;20206;-65
2023/05/06 07:06:46;;;;;;;1999.90;999.90;;;;;;;14.91;100.00;93867.44;5008189;28;20245;-64
2023/05/06 07:09:12;;;;;;;1999.90;999.90;;;;;;;15.04;100.00;93892.72;5008200;28;20206;-63
2023/05/06 07:11:37;;;;;;;1999.90;999.90;;;;;;;15.05;100.00;93916.97;5007950;28;20246;-64
2023/05/06 07:14:03;;;;;;;1999.90;999.90;;;;;;;15.16;100.00;93936.44;5008013;28;20205;-64
2023/05/06 07:16:28;;;;;;;1999.90;999.90;;;;;;;15.24;100.00;93947.88;5007989;28;20202;-66
2023/05/06 07:18:54;;;;;;;1999.90;999.90;;;;;;;15.43;100.00;93969.34;5007838;28;20207;-62
2023/05/06 07:21:19;;;;;;;1999.90;999.90;;;;;;;15.65;100.00;93985.53;5008105;28;20211;-64
2023/05/06 07:23:44;;;;;;;1999.90;999.90;;;;;;;15.93;100.00;94026.16;5008317;28;20202;-64
2023/05/06 07:26:10;;;;;;;1999.90;999.90;;;;;;;16.28;100.00;94060.16;5007698;28;20199;-64
2023/05/06 07:28:35;;;;;;;1999.90;999.90;;;;;;;16.87;100.00;94102.38;5008170;28;20194;-66
2023/05/06 07:31:01;;;;;;;1999.90;999.90;;;;;;;17.24;100.00;94202.06;5007697;28;20224;-63
2023/05/06 07:33:26;;;;;;;1999.90;999.90;;;;;;;17.98;100.00;94422.59;5008074;28;20195;-63
2023/05/06 07:35:53;;;;;;;1999.90;999.90;;;;;;;18.33;100.00;94752.50;5007552;28;20221;-64
2023/05/06 07:38:22;;;;;;;1999.90;999.90;;;;;;;18.26;100.00;94996.13;5008054;28;20195;-63
2023/05/06 07:40:48;;;;;;;1999.90;999.90;;;;;;;18.37;100.00;95137.47;5007413;28;20210;-63
2023/05/06 07:43:13;;;;;;;1999.90;999.90;;;;;;;18.52;100.00;95204.78;5011193;28;20198;-63
2023/05/06 07:45:38;;;;;;;1999.90;999.90;;;;;;;18.64;100.00;95248.16;5011455;28;20241;-64
2023/05/06 07:48:04;;;;;;;1999.90;999.90;;;;;;;18.84;100.00;95254.03;5011358;28;20198;-64
2023/05/06 07:50:30;;;;;;;1999.90;999.90;;;;;;;18.76;100.00;95294.31;5011461;28;20298;-66
2023/05/06 07:52:56;;;;;;;1999.90;999.90;;;;;;;19.03;100.00;95308.19;5011382;28;20218;-64
2023/05/06 07:55:21;;;;;;;1999.90;999.90;;;;;;;18.91;100.00;95329.22;5011383;28;20214;-65
2023/05/06 07:57:48;;;;;;;1999.90;999.90;;;;;;;18.81;100.00;95337.97;5011265;28;20202;-63
2023/05/06 08:00:13;;;;;;;1999.90;999.90;;;;;;;18.53;100.00;95347.41;5011479;28;20195;-66
2023/05/06 08:02:42;;;;;;;1999.90;999.90;;;;;;;18.73;100.00;95340.25;5011722;28;20201;-64
2023/05/06 08:05:11;;;;;;;1999.90;999.90;;;;;;;18.71;100.00;95344.69;5011342;28;20221;-65
2023/05/06 08:07:38;;;;;;;1999.90;999.90;;;;;;;18.46;100.00;95345.69;5011145;28;20191;-68
2023/05/06 08:10:04;;;;;;;1999.90;999.90;;;;;;;18.34;100.00;95352.06;5010989;28;20202;-71
2023/05/06 08:12:29;;;;;;;1999.90;999.90;;;;;;;18.76;100.00;95344.13;5011083;28;20195;-73
2023/05/06 08:14:55;;;;;;;1999.90;999.90;;;;;;;19.04;100.00;95340.16;5010828;28;20222;-69
2023/05/06 08:17:20;;;;;;;1999.90;999.90;;;;;;;19.19;100.00;95343.88;5010963;28;20203;-69
2023/05/06 08:19:45;;;;;;;1999.90;999.90;;;;;;;19.20;100.00;95350.97;5011237;28;20186;-68
2023/05/06 08:22:11;;;;;;;1999.90;999.90;;;;;;;19.03;100.00;95358.78;5010889;28;20249;-69
2023/05/06 08:24:36;;;;;;;1999.90;999.90;;;;;;;19.32;100.00;95363.94;5010968;28;20183;-69
2023/05/06 08:27:03;;;;;;;1999.90;999.90;;;;;;;19.21;100.00;95363.56;5010845;28;20224;-69
2023/05/06 08:29:28;;;;;;;1999.90;999.90;;;;;;;19.16;100.00;95372.50;5010921;28;20215;-69
2023/05/06 08:31:54;;;;;;;1999.90;999.90;;;;;;;19.41;100.00;95361.16;5010383;28;20207;-68
2023/05/06 08:34:20;;;;;;;1999.90;999.90;;;;;;;19.46;100.00;95375.16;5010995;28;20213;-67
2023/05/06 08:36:46;;;;;;;1999.90;999.90;;;;;;;19.31;100.00;95390.09;5010922;28;20210;-67
2023/05/06 08:39:13;;;;;;;1999.90;999.90;;;;;;;19.78;100.00;95384.09;5010970;28;20197;-67
2023/05/06 08:41:39;;;;;;;1999.90;999.90;;;;;;;20.31;100.00;95388.03;5011007;28;20210;-67
2023/05/06 08:44:07;;;;;;;1999.90;999.90;;;;;;;20.68;100.00;95401.34;5010358;28;20216;-67
2023/05/06 08:46:33;;;;;;;1999.90;999.90;;;;;;;20.47;100.00;95416.22;5010328;28;20195;-64
2023/05/06 08:48:58;;;;;;;1999.90;999.90;;;;;;;20.71;100.00;95414.31;5010473;28;20191;-66
2023/05/06 08:51:28;;;;;;;1999.90;999.90;;;;;;;20.69;100.00;95418.78;5010155;28;20274;-66
2023/05/06 08:53:54;;;;;;;1999.90;999.90;;;;;;;20.65;100.00;95430.03;5009233;28;20186;-66
2023/05/06 08:56:25;;;;;;;1999.90;999.90;;;;;;;20.92;100.00;95432.78;5010575;28;20211;-66
2023/05/06 08:58:51;;;;;;;1999.90;999.90;;;;;;;20.88;100.00;95436.91;5010283;28;20183;-70
2023/05/06 09:01:16;;;;;;;1999.90;999.90;;;;;;;20.88;100.00;95431.34;5010544;28;20254;-68
2023/05/06 09:03:42;;;;;;;1999.90;999.90;;;;;;;20.90;100.00;95435.19;5010568;28;20190;-68
2023/05/06 09:06:09;;;;;;;1999.90;999.90;;;;;;;20.90;100.00;95435.19;5010579;28;20187;-67
2023/05/06 09:08:35;;;;;;;1999.90;999.90;;;;;;;21.17;100.00;95437.91;5010317;28;20229;-67
2023/05/06 09:11:00;;;;;;;1999.90;999.90;;;;;;;21.28;100.00;95432.59;5010315;28;20664;-66
2023/05/06 09:13:26;;;;;;;1999.90;999.90;;;;;;;21.26;100.00;95439.84;5010035;28;20191;-65
2023/05/06 09:15:53;;;;;;;1999.90;999.90;;;;;;;21.67;100.00;95436.22;5009910;28;20278;-65
2023/05/06 09:18:18;;;;;;;1999.90;999.90;;;;;;;22.11;100.00;95442.69;5010119;28;20198;-66
2023/05/06 09:20:46;;;;;;;1999.90;999.90;;;;;;;22.32;100.00;95447.91;5009686;28;20207;-66
2023/05/06 09:23:14;;;;;;;1999.90;999.90;;;;;;;22.09;100.00;95445.97;5010151;28;20194;-64
2023/05/06 09:25:41;;;;;;;1999.90;999.90;;;;;;;21.85;100.00;95447.25;5009755;28;20274;-66
2023/05/06 09:28:12;;;;;;;1999.90;999.90;;;;;;;22.61;100.00;95452.00;5009473;28;20225;-65
2023/05/06 09:30:39;;;;;;;1999.90;999.90;;;;;;;22.70;100.00;95449.88;5009983;28;20195;-65
2023/05/06 09:33:05;;;;;;;1999.90;999.90;;;;;;;22.59;100.00;95457.25;5009534;28;20205;-66
2023/05/06 09:35:39;;;;;;;1999.90;999.90;;;;;;;22.52;100.00;95456.38;5009610;28;20229;-65
2023/05/06 09:38:05;;;;;;;1999.90;999.90;;;;;;;22.18;100.00;95461.81;5009842;28;20195;-67
2023/05/06 09:40:31;;;;;;;1999.90;999.90;;;;;;;22.52;100.00;95461.94;5009342;28;20201;-66
2023/05/06 09:42:56;;;;;;;1999.90;999.90;;;;;;;23.68;100.00;95460.28;5009311;28;20203;-70
2023/05/06 09:45:23;;;;;;;1999.90;999.90;;;;;;;23.88;100.00;95452.69;5009510;28;20195;-66
2023/05/06 09:47:49;;;;;;;1999.90;999.90;;;;;;;23.62;100.00;95451.84;5009246;28;20199;-69
2023/05/06 09:50:14;;;;;;;1999.90;999.90;;;;;;;23.28;100.00;95449.06;5009371;28;20210;-68
2023/05/06 09:52:44;;;;;;;1999.90;999.90;;;;;;;23.28;100.00;95454.63;5009665;28;20222;-66
2023/05/06 09:55:10;;;;;;;1999.90;999.90;;;;;;;23.81;100.00;95452.31;5009075;28;20210;-67
2023/05/06 09:57:37;;;;;;;1999.90;999.90;;;;;;;24.84;100.00;95442.88;5009617;28;20191;-66
2023/05/06 10:00:03;;;;;;;1999.90;999.90;;;;;;;24.11;100.00;95448.94;5009840;28;20183;-66
2023/05/06 10:02:29;;;;;;;1999.90;999.90;;;;;;;23.92;100.00;95447.69;5009506;28;20191;-66
2023/05/06 10:04:56;;;;;;;1999.90;999.90;;;;;;;23.53;100.00;95454.00;5008625;28;20362;-66
2023/05/06 10:07:22;;;;;;;1999.90;999.90;;;;;;;23.49;100.00;95453.44;5009319;28;20187;-66
2023/05/06 10:09:50;;;;;;;1999.90;999.90;;;;;;;22.94;100.00;95452.56;5008465;28;20198;-66
2023/05/06 10:12:15;;;;;;;1999.90;999.90;;;;;;;23.28;100.00;95463.00;5008526;28;20207;-66
2023/05/06 10:14:40;;;;;;;1999.90;999.90;;;;;;;24.17;100.00;95451.78;5008627;28;20195;-65
2023/05/06 10:17:11;;;;;;;1999.90;999.90;;;;;;;23.47;100.00;95447.56;5009174;28;20187;-66
2023/05/06 10:19:40;;;;;;;1999.90;999.90;;;;;;;23.32;100.00;95455.19;5008828;28;20195;-66
2023/05/06 10:22:29;;;;;;;1999.90;999.90;;;;;;;22.76;100.00;95459.06;5008803;28;20192;-66
2023/05/06 10:25:02;;;;;;;1999.90;999.90;;;;;;;23.23;100.00;95463.69;5008583;28;20199;-66
2023/05/06 10:27:29;;;;;;;1999.90;999.90;;;;;;;24.71;100.00;95445.28;5008555;28;20197;-66
2023/05/06 10:29:58;;;;;;;1999.90;999.90;;;;;;;25.19;100.00;95435.00;5008864;28;20206;-66
2023/05/06 10:32:25;;;;;;;1999.90;999.90;;;;;;;25.22;100.00;95434.00;5008392;28;20195;-66
2023/05/06 10:34:56;;;;;;;1999.90;999.90;;;;;;;25.64;100.00;95420.09;5008194;28;20270;-66
2023/05/06 10:37:28;;;;;;;1999.90;999.90;;;;;;;25.76;100.00;95415.28;5008930;28;20187;-66
2023/05/06 10:39:55;;;;;;;1999.90;999.90;;;;;;;26.29;100.00;95418.81;5008104;28;20199;-67
2023/05/06 10:42:26;;;;;;;1999.90;999.90;;;;;;;26.87;100.00;95423.53;5008491;28;20230;-67
2023/05/06 10:45:17;;;;;;;1999.90;999.90;;;;;;;27.76;100.00;95413.75;5008550;28;20198;-67